sensor_id;sensor_type;location;lat;lon;timestamp;pressure;altitude;pressure_sealevel;temperature;humidity
71361;BME280;59166;48.908;1.870;2022-10-17T00:04:36;100216.28;;;17.65;100.00
71361;BME280;59166;48.908;1.870;2022-10-17T00:09:37;100230.75;;;17.65;100.00
71361;BME280;59166;48.908;1.870;2022-10-17T00:14:38;100236.84;;;17.62;100.00
71361;BME280;59166;48.908;1.870;2022-10-17T00:19:40;100242.28;;;17.62;100.00
71361;BME280;59166;48.908;1.870;2022-10-17T00:24:41;100239.84;;;17.61;100.00
71361;BME280;59166;48.908;1.870;2022-10-17T00:29:42;100240.88;;;17.65;100.00
71361;BME280;59166;48.908;1.870;2022-10-17T00:34:44;100237.31;;;17.64;100.00
71361;BME280;59166;48.908;1.870;2022-10-17T00:39:45;100235.41;;;17.65;100.00
71361;BME280;59166;48.908;1.870;2022-10-17T00:45:18;100226.28;;;17.69;100.00
71361;BME280;59166;48.908;1.870;2022-10-17T00:50:21;100230.50;;;17.75;100.00
71361;BME280;59166;48.908;1.870;2022-10-17T00:55:25;100222.19;;;17.80;100.00
71361;BME280;59166;48.908;1.870;2022-10-17T01:00:26;100245.22;;;17.88;99.25
71361;BME280;59166;48.908;1.870;2022-10-17T01:05:29;100235.91;;;17.89;98.95
71361;BME280;59166;48.908;1.870;2022-10-17T01:10:33;100243.13;;;17.85;98.79
71361;BME280;59166;48.908;1.870;2022-10-17T01:15:44;100255.69;;;17.86;98.48
71361;BME280;59166;48.908;1.870;2022-10-17T01:21:01;100267.22;;;17.83;98.61
71361;BME280;59166;48.908;1.870;2022-10-17T01:26:15;100272.78;;;17.78;98.81
71361;BME280;59166;48.908;1.870;2022-10-17T01:31:21;100267.13;;;17.74;98.85
71361;BME280;59166;48.908;1.870;2022-10-17T01:36:34;100269.06;;;17.74;98.77
71361;BME280;59166;48.908;1.870;2022-10-17T01:41:40;100258.13;;;17.74;98.61
71361;BME280;59166;48.908;1.870;2022-10-17T01:46:46;100261.66;;;17.74;98.44
71361;BME280;59166;48.908;1.870;2022-10-17T01:51:51;100266.22;;;17.79;97.95
71361;BME280;59166;48.908;1.870;2022-10-17T01:56:58;100264.50;;;17.83;97.57
71361;BME280;59166;48.908;1.870;2022-10-17T02:02:23;100269.34;;;17.86;97.37
71361;BME280;59166;48.908;1.870;2022-10-17T02:07:25;100279.31;;;17.90;96.94
71361;BME280;59166;48.908;1.870;2022-10-17T02:12:42;100247.34;;;17.91;96.89
71361;BME280;59166;48.908;1.870;2022-10-17T02:17:56;100249.25;;;17.90;96.88
71361;BME280;59166;48.908;1.870;2022-10-17T02:23:08;100245.13;;;17.93;96.65
71361;BME280;59166;48.908;1.870;2022-10-17T02:28:18;100247.84;;;17.93;96.48
71361;BME280;59166;48.908;1.870;2022-10-17T02:33:36;100251.69;;;17.92;96.61
71361;BME280;59166;48.908;1.870;2022-10-17T02:38:40;100255.06;;;17.89;96.58
71361;BME280;59166;48.908;1.870;2022-10-17T02:43:43;100249.25;;;17.90;96.58
71361;BME280;59166;48.908;1.870;2022-10-17T02:48:48;100248.47;;;17.90;96.35
71361;BME280;59166;48.908;1.870;2022-10-17T02:53:53;100254.88;;;17.85;96.29
71361;BME280;59166;48.908;1.870;2022-10-17T02:58:59;100259.41;;;17.90;95.62
71361;BME280;59166;48.908;1.870;2022-10-17T03:04:07;100259.91;;;17.92;95.26
71361;BME280;59166;48.908;1.870;2022-10-17T03:09:08;100250.59;;;17.93;95.06
71361;BME280;59166;48.908;1.870;2022-10-17T03:14:09;100250.06;;;17.91;94.60
71361;BME280;59166;48.908;1.870;2022-10-17T03:19:11;100269.19;;;17.91;94.16
71361;BME280;59166;48.908;1.870;2022-10-17T03:24:12;100285.13;;;17.89;94.26
71361;BME280;59166;48.908;1.870;2022-10-17T03:29:12;100288.97;;;17.88;94.43
71361;BME280;59166;48.908;1.870;2022-10-17T03:34:15;100301.94;;;17.82;94.96
71361;BME280;59166;48.908;1.870;2022-10-17T03:39:16;100304.97;;;17.81;94.79
71361;BME280;59166;48.908;1.870;2022-10-17T03:44:17;100303.38;;;17.80;94.76
71361;BME280;59166;48.908;1.870;2022-10-17T03:49:19;100308.03;;;17.79;94.38
71361;BME280;59166;48.908;1.870;2022-10-17T03:54:20;100318.34;;;17.82;93.64
71361;BME280;59166;48.908;1.870;2022-10-17T03:59:21;100317.81;;;17.80;92.97
71361;BME280;59166;48.908;1.870;2022-10-17T04:04:23;100320.75;;;17.84;92.70
71361;BME280;59166;48.908;1.870;2022-10-17T04:09:24;100326.22;;;17.84;91.92
71361;BME280;59166;48.908;1.870;2022-10-17T04:14:25;100325.63;;;17.87;91.24
71361;BME280;59166;48.908;1.870;2022-10-17T04:19:28;100323.38;;;17.89;90.79
71361;BME280;59166;48.908;1.870;2022-10-17T04:24:28;100328.03;;;17.88;90.72
71361;BME280;59166;48.908;1.870;2022-10-17T04:29:29;100339.28;;;17.87;90.69
71361;BME280;59166;48.908;1.870;2022-10-17T04:34:32;100365.59;;;17.83;90.85
71361;BME280;59166;48.908;1.870;2022-10-17T04:39:33;100368.44;;;17.78;91.85
71361;BME280;59166;48.908;1.870;2022-10-17T04:44:33;100383.13;;;17.68;92.76
71361;BME280;59166;48.908;1.870;2022-10-17T04:49:36;100383.53;;;17.62;94.27
71361;BME280;59166;48.908;1.870;2022-10-17T04:54:36;100401.84;;;17.48;96.10
71361;BME280;59166;48.908;1.870;2022-10-17T04:59:37;100426.63;;;17.37;97.88
71361;BME280;59166;48.908;1.870;2022-10-17T05:04:39;100436.94;;;17.27;99.55
71361;BME280;59166;48.908;1.870;2022-10-17T05:09:40;100430.25;;;17.19;100.00
71361;BME280;59166;48.908;1.870;2022-10-17T05:14:41;100409.56;;;17.13;100.00
71361;BME280;59166;48.908;1.870;2022-10-17T05:19:43;100379.06;;;17.11;100.00
71361;BME280;59166;48.908;1.870;2022-10-17T05:24:44;100387.53;;;17.10;100.00
71361;BME280;59166;48.908;1.870;2022-10-17T05:29:45;100398.56;;;17.05;100.00
71361;BME280;59166;48.908;1.870;2022-10-17T05:34:47;100390.75;;;16.98;100.00
71361;BME280;59166;48.908;1.870;2022-10-17T05:39:48;100416.22;;;16.93;100.00
71361;BME280;59166;48.908;1.870;2022-10-17T05:44:49;100401.75;;;16.93;100.00
71361;BME280;59166;48.908;1.870;2022-10-17T05:49:51;100387.88;;;16.89;100.00
71361;BME280;59166;48.908;1.870;2022-10-17T05:54:52;100372.94;;;16.87;100.00
71361;BME280;59166;48.908;1.870;2022-10-17T05:59:53;100379.81;;;16.84;100.00
71361;BME280;59166;48.908;1.870;2022-10-17T06:04:56;100371.31;;;16.86;100.00
71361;BME280;59166;48.908;1.870;2022-10-17T06:09:57;100386.09;;;16.85;100.00
71361;BME280;59166;48.908;1.870;2022-10-17T06:14:58;100401.63;;;16.84;100.00
71361;BME280;59166;48.908;1.870;2022-10-17T06:20:00;100419.44;;;16.82;100.00
71361;BME280;59166;48.908;1.870;2022-10-17T06:25:01;100423.25;;;16.81;100.00
71361;BME280;59166;48.908;1.870;2022-10-17T06:30:03;100435.78;;;16.82;100.00
71361;BME280;59166;48.908;1.870;2022-10-17T06:35:06;100451.03;;;16.83;100.00
71361;BME280;59166;48.908;1.870;2022-10-17T06:40:08;100459.22;;;16.83;100.00
71361;BME280;59166;48.908;1.870;2022-10-17T06:45:10;100477.81;;;16.81;100.00
71361;BME280;59166;48.908;1.870;2022-10-17T06:50:12;100480.25;;;16.82;100.00
71361;BME280;59166;48.908;1.870;2022-10-17T06:55:13;100505.31;;;16.84;100.00
71361;BME280;59166;48.908;1.870;2022-10-17T07:00:14;100517.50;;;16.92;100.00
71361;BME280;59166;48.908;1.870;2022-10-17T07:05:17;100539.31;;;16.92;100.00
71361;BME280;59166;48.908;1.870;2022-10-17T07:10:18;100555.09;;;16.95;100.00
71361;BME280;59166;48.908;1.870;2022-10-17T07:15:19;100565.22;;;16.94;100.00
71361;BME280;59166;48.908;1.870;2022-10-17T07:20:21;100574.13;;;17.00;100.00
71361;BME280;59166;48.908;1.870;2022-10-17T07:25:22;100586.06;;;17.04;100.00
71361;BME280;59166;48.908;1.870;2022-10-17T07:30:24;100590.44;;;17.05;100.00
71361;BME280;59166;48.908;1.870;2022-10-17T07:35:27;100595.78;;;17.10;100.00
71361;BME280;59166;48.908;1.870;2022-10-17T07:40:28;100613.22;;;17.14;100.00
71361;BME280;59166;48.908;1.870;2022-10-17T07:45:29;100628.44;;;17.20;100.00
71361;BME280;59166;48.908;1.870;2022-10-17T07:50:31;100634.19;;;17.37;100.00
71361;BME280;59166;48.908;1.870;2022-10-17T07:55:32;100649.69;;;17.42;100.00
71361;BME280;59166;48.908;1.870;2022-10-17T08:00:33;100664.66;;;17.44;100.00
71361;BME280;59166;48.908;1.870;2022-10-17T08:05:35;100664.59;;;17.50;100.00
71361;BME280;59166;48.908;1.870;2022-10-17T08:10:36;100677.94;;;17.51;100.00
71361;BME280;59166;48.908;1.870;2022-10-17T08:15:37;100693.06;;;17.62;100.00
71361;BME280;59166;48.908;1.870;2022-10-17T08:20:39;100690.94;;;17.59;100.00
71361;BME280;59166;48.908;1.870;2022-10-17T08:25:40;100707.31;;;17.59;100.00
71361;BME280;59166;48.908;1.870;2022-10-17T08:30:41;100708.00;;;17.70;100.00
71361;BME280;59166;48.908;1.870;2022-10-17T08:35:43;100721.88;;;17.73;100.00
71361;BME280;59166;48.908;1.870;2022-10-17T08:40:48;100721.56;;;17.75;100.00
71361;BME280;59166;48.908;1.870;2022-10-17T08:45:53;100740.69;;;17.75;100.00
71361;BME280;59166;48.908;1.870;2022-10-17T08:50:59;100746.16;;;17.75;100.00
71361;BME280;59166;48.908;1.870;2022-10-17T08:56:06;100758.34;;;17.82;100.00
71361;BME280;59166;48.908;1.870;2022-10-17T09:01:14;100753.84;;;17.73;100.00
71361;BME280;59166;48.908;1.870;2022-10-17T09:06:21;100773.63;;;17.83;100.00
71361;BME280;59166;48.908;1.870;2022-10-17T09:11:38;100783.97;;;17.86;100.00
71361;BME280;59166;48.908;1.870;2022-10-17T09:17:07;100805.91;;;18.00;100.00
71361;BME280;59166;48.908;1.870;2022-10-17T09:22:13;100814.09;;;18.00;100.00
71361;BME280;59166;48.908;1.870;2022-10-17T09:27:22;100820.06;;;18.02;100.00
71361;BME280;59166;48.908;1.870;2022-10-17T09:32:24;100815.03;;;18.09;100.00
71361;BME280;59166;48.908;1.870;2022-10-17T09:37:46;100812.81;;;18.11;100.00
71361;BME280;59166;48.908;1.870;2022-10-17T09:42:49;100821.53;;;18.13;100.00
71361;BME280;59166;48.908;1.870;2022-10-17T09:47:56;100827.00;;;18.13;100.00
71361;BME280;59166;48.908;1.870;2022-10-17T09:53:09;100827.63;;;18.10;100.00
71361;BME280;59166;48.908;1.870;2022-10-17T09:58:44;100839.22;;;18.02;100.00
71361;BME280;59166;48.908;1.870;2022-10-17T10:03:46;100842.75;;;18.03;100.00
71361;BME280;59166;48.908;1.870;2022-10-17T10:08:50;100846.22;;;18.08;100.00
71361;BME280;59166;48.908;1.870;2022-10-17T10:13:52;100841.34;;;18.05;100.00
71361;BME280;59166;48.908;1.870;2022-10-17T10:18:52;100854.72;;;18.07;100.00
71361;BME280;59166;48.908;1.870;2022-10-17T10:24:09;100866.91;;;18.14;100.00
71361;BME280;59166;48.908;1.870;2022-10-17T10:29:29;100878.53;;;18.25;100.00
71361;BME280;59166;48.908;1.870;2022-10-17T10:34:31;100882.63;;;18.27;100.00
71361;BME280;59166;48.908;1.870;2022-10-17T10:39:39;100883.63;;;18.31;100.00
71361;BME280;59166;48.908;1.870;2022-10-17T10:44:41;100895.59;;;18.35;100.00
71361;BME280;59166;48.908;1.870;2022-10-17T10:49:42;100895.38;;;18.51;100.00
71361;BME280;59166;48.908;1.870;2022-10-17T10:54:52;100901.13;;;18.49;100.00
71361;BME280;59166;48.908;1.870;2022-10-17T11:00:02;100912.06;;;18.49;100.00
71361;BME280;59166;48.908;1.870;2022-10-17T11:05:29;100911.34;;;18.43;100.00
71361;BME280;59166;48.908;1.870;2022-10-17T11:10:40;100924.06;;;18.53;100.00
71361;BME280;59166;48.908;1.870;2022-10-17T11:15:46;100933.69;;;18.51;100.00
71361;BME280;59166;48.908;1.870;2022-10-17T11:20:52;100936.84;;;18.58;100.00
71361;BME280;59166;48.908;1.870;2022-10-17T11:25:57;100942.19;;;18.49;100.00
71361;BME280;59166;48.908;1.870;2022-10-17T11:31:02;100951.78;;;18.46;100.00
71361;BME280;59166;48.908;1.870;2022-10-17T11:36:05;100951.25;;;18.44;100.00
71361;BME280;59166;48.908;1.870;2022-10-17T11:41:13;100950.59;;;18.53;100.00
71361;BME280;59166;48.908;1.870;2022-10-17T11:46:20;100950.09;;;18.51;100.00
71361;BME280;59166;48.908;1.870;2022-10-17T11:51:21;100969.25;;;18.51;100.00
71361;BME280;59166;48.908;1.870;2022-10-17T11:56:30;100969.84;;;18.48;100.00
71361;BME280;59166;48.908;1.870;2022-10-17T12:02:10;100975.31;;;18.48;100.00
71361;BME280;59166;48.908;1.870;2022-10-17T12:07:17;100988.09;;;18.33;100.00
71361;BME280;59166;48.908;1.870;2022-10-17T12:12:39;100983.09;;;18.40;100.00
71361;BME280;59166;48.908;1.870;2022-10-17T12:17:41;100988.00;;;18.38;100.00
71361;BME280;59166;48.908;1.870;2022-10-17T12:22:46;100998.59;;;18.45;100.00
71361;BME280;59166;48.908;1.870;2022-10-17T12:27:49;100995.56;;;18.46;100.00
71361;BME280;59166;48.908;1.870;2022-10-17T12:33:15;100987.66;;;18.45;100.00
71361;BME280;59166;48.908;1.870;2022-10-17T12:38:26;100990.16;;;18.41;100.00
71361;BME280;59166;48.908;1.870;2022-10-17T12:43:49;100988.34;;;18.37;100.00
71361;BME280;59166;48.908;1.870;2022-10-17T12:54:30;100980.94;;;18.37;100.00
71361;BME280;59166;48.908;1.870;2022-10-17T12:59:42;100973.25;;;18.39;100.00
71361;BME280;59166;48.908;1.870;2022-10-17T13:04:45;100977.91;;;18.39;100.00
71361;BME280;59166;48.908;1.870;2022-10-17T13:09:47;100975.47;;;18.37;100.00
71361;BME280;59166;48.908;1.870;2022-10-17T13:14:52;100976.94;;;18.30;100.00
71361;BME280;59166;48.908;1.870;2022-10-17T13:19:55;100979.13;;;18.28;100.00
71361;BME280;59166;48.908;1.870;2022-10-17T13:25:08;100987.72;;;18.21;100.00
71361;BME280;59166;48.908;1.870;2022-10-17T13:30:33;100984.81;;;18.13;100.00
71361;BME280;59166;48.908;1.870;2022-10-17T13:35:35;100993.28;;;18.11;100.00
71361;BME280;59166;48.908;1.870;2022-10-17T13:40:41;101000.06;;;18.19;100.00
71361;BME280;59166;48.908;1.870;2022-10-17T13:45:48;101007.97;;;18.20;100.00
71361;BME280;59166;48.908;1.870;2022-10-17T13:50:51;101023.81;;;18.23;100.00
71361;BME280;59166;48.908;1.870;2022-10-17T13:55:56;101036.88;;;18.26;100.00
71361;BME280;59166;48.908;1.870;2022-10-17T14:00:59;101029.78;;;18.25;100.00
71361;BME280;59166;48.908;1.870;2022-10-17T14:06:04;101032.16;;;18.32;100.00
71361;BME280;59166;48.908;1.870;2022-10-17T14:11:21;101029.50;;;18.27;100.00
71361;BME280;59166;48.908;1.870;2022-10-17T14:16:26;101023.81;;;18.23;100.00
71361;BME280;59166;48.908;1.870;2022-10-17T14:21:27;101026.31;;;18.15;100.00
71361;BME280;59166;48.908;1.870;2022-10-17T14:26:29;101018.19;;;18.10;100.00
71361;BME280;59166;48.908;1.870;2022-10-17T14:31:33;101009.41;;;18.13;100.00
71361;BME280;59166;48.908;1.870;2022-10-17T14:36:50;101005.03;;;18.12;100.00
71361;BME280;59166;48.908;1.870;2022-10-17T14:41:52;101006.94;;;18.11;100.00
71361;BME280;59166;48.908;1.870;2022-10-17T14:46:57;101010.50;;;18.12;100.00
71361;BME280;59166;48.908;1.870;2022-10-17T14:52:27;101017.75;;;18.03;100.00
71361;BME280;59166;48.908;1.870;2022-10-17T14:57:40;101045.13;;;17.97;100.00
71361;BME280;59166;48.908;1.870;2022-10-17T15:02:45;101031.06;;;17.85;100.00
71361;BME280;59166;48.908;1.870;2022-10-17T15:07:47;101036.28;;;17.82;100.00
71361;BME280;59166;48.908;1.870;2022-10-17T15:12:48;101039.03;;;17.82;100.00
71361;BME280;59166;48.908;1.870;2022-10-17T15:17:51;101040.66;;;17.83;100.00
71361;BME280;59166;48.908;1.870;2022-10-17T15:22:52;101049.22;;;17.76;100.00
71361;BME280;59166;48.908;1.870;2022-10-17T15:27:54;101050.59;;;17.74;100.00
71361;BME280;59166;48.908;1.870;2022-10-17T15:33:01;101044.44;;;17.63;100.00
71361;BME280;59166;48.908;1.870;2022-10-17T15:38:05;101044.75;;;17.57;100.00
71361;BME280;59166;48.908;1.870;2022-10-17T15:43:08;101057.66;;;17.51;100.00
71361;BME280;59166;48.908;1.870;2022-10-17T15:48:17;101035.53;;;17.53;100.00
71361;BME280;59166;48.908;1.870;2022-10-17T15:53:19;101056.22;;;17.59;100.00
71361;BME280;59166;48.908;1.870;2022-10-17T15:58:21;101047.72;;;17.60;100.00
71361;BME280;59166;48.908;1.870;2022-10-17T16:03:24;101051.00;;;17.62;100.00
71361;BME280;59166;48.908;1.870;2022-10-17T16:08:25;101054.81;;;17.61;100.00
71361;BME280;59166;48.908;1.870;2022-10-17T16:13:26;101059.44;;;17.66;100.00
71361;BME280;59166;48.908;1.870;2022-10-17T16:18:29;101076.31;;;17.73;100.00
71361;BME280;59166;48.908;1.870;2022-10-17T16:23:31;101075.19;;;17.74;100.00
71361;BME280;59166;48.908;1.870;2022-10-17T16:28:33;101070.63;;;17.64;100.00
71361;BME280;59166;48.908;1.870;2022-10-17T16:33:35;101074.28;;;17.55;100.00
71361;BME280;59166;48.908;1.870;2022-10-17T16:38:37;101057.41;;;17.48;100.00
71361;BME280;59166;48.908;1.870;2022-10-17T16:43:39;101071.31;;;17.51;100.00
71361;BME280;59166;48.908;1.870;2022-10-17T16:48:43;101077.13;;;17.44;100.00
71361;BME280;59166;48.908;1.870;2022-10-17T16:53:45;101082.09;;;17.37;100.00
71361;BME280;59166;48.908;1.870;2022-10-17T16:58:47;101086.22;;;17.35;100.00
71361;BME280;59166;48.908;1.870;2022-10-17T17:03:51;101083.81;;;17.28;100.00
71361;BME280;59166;48.908;1.870;2022-10-17T17:08:52;101089.53;;;17.27;100.00
71361;BME280;59166;48.908;1.870;2022-10-17T17:13:55;101083.56;;;17.25;100.00
71361;BME280;59166;48.908;1.870;2022-10-17T17:18:58;101088.22;;;17.24;100.00
71361;BME280;59166;48.908;1.870;2022-10-17T17:24:00;101089.94;;;17.15;100.00
71361;BME280;59166;48.908;1.870;2022-10-17T17:29:02;101080.41;;;17.03;100.00
71361;BME280;59166;48.908;1.870;2022-10-17T17:34:05;101084.59;;;16.95;100.00
71361;BME280;59166;48.908;1.870;2022-10-17T17:39:13;101095.75;;;16.99;100.00
71361;BME280;59166;48.908;1.870;2022-10-17T17:44:14;101093.34;;;16.92;100.00
71361;BME280;59166;48.908;1.870;2022-10-17T17:49:16;101104.28;;;16.87;100.00
71361;BME280;59166;48.908;1.870;2022-10-17T17:54:17;101105.34;;;16.91;100.00
71361;BME280;59166;48.908;1.870;2022-10-17T17:59:18;101107.53;;;16.89;100.00
71361;BME280;59166;48.908;1.870;2022-10-17T18:04:20;101111.63;;;16.91;100.00
71361;BME280;59166;48.908;1.870;2022-10-17T18:09:21;101122.25;;;16.93;100.00
71361;BME280;59166;48.908;1.870;2022-10-17T18:14:22;101112.44;;;16.92;100.00
71361;BME280;59166;48.908;1.870;2022-10-17T18:19:24;101112.19;;;16.88;100.00
71361;BME280;59166;48.908;1.870;2022-10-17T18:24:25;101100.41;;;16.93;100.00
71361;BME280;59166;48.908;1.870;2022-10-17T18:29:26;101107.50;;;16.94;100.00
71361;BME280;59166;48.908;1.870;2022-10-17T18:34:28;101112.47;;;16.87;100.00
71361;BME280;59166;48.908;1.870;2022-10-17T18:39:29;101122.81;;;16.90;100.00
71361;BME280;59166;48.908;1.870;2022-10-17T18:44:30;101135.63;;;16.94;100.00
71361;BME280;59166;48.908;1.870;2022-10-17T18:49:32;101144.09;;;16.93;100.00
71361;BME280;59166;48.908;1.870;2022-10-17T18:54:33;101139.75;;;16.92;100.00
71361;BME280;59166;48.908;1.870;2022-10-17T18:59:36;101134.81;;;16.94;100.00
71361;BME280;59166;48.908;1.870;2022-10-17T19:04:38;101152.56;;;16.91;100.00
71361;BME280;59166;48.908;1.870;2022-10-17T19:09:39;101159.16;;;16.85;100.00
71361;BME280;59166;48.908;1.870;2022-10-17T19:14:39;101162.09;;;16.89;100.00
71361;BME280;59166;48.908;1.870;2022-10-17T19:19:42;101164.56;;;16.90;100.00
71361;BME280;59166;48.908;1.870;2022-10-17T19:24:43;101165.97;;;16.88;100.00
71361;BME280;59166;48.908;1.870;2022-10-17T19:29:43;101172.25;;;16.88;100.00
71361;BME280;59166;48.908;1.870;2022-10-17T19:34:46;101176.31;;;16.91;100.00
71361;BME280;59166;48.908;1.870;2022-10-17T19:39:47;101176.00;;;16.92;100.00
71361;BME280;59166;48.908;1.870;2022-10-17T19:44:48;101172.50;;;16.92;100.00
71361;BME280;59166;48.908;1.870;2022-10-17T19:49:50;101171.94;;;16.90;100.00
71361;BME280;59166;48.908;1.870;2022-10-17T19:54:51;101154.19;;;16.92;100.00
71361;BME280;59166;48.908;1.870;2022-10-17T19:59:55;101150.34;;;16.93;100.00
71361;BME280;59166;48.908;1.870;2022-10-17T20:04:59;101154.72;;;16.94;100.00
71361;BME280;59166;48.908;1.870;2022-10-17T20:10:00;101160.19;;;16.94;100.00
71361;BME280;59166;48.908;1.870;2022-10-17T20:15:01;101154.19;;;16.92;100.00
71361;BME280;59166;48.908;1.870;2022-10-17T20:20:05;101164.31;;;16.92;100.00
71361;BME280;59166;48.908;1.870;2022-10-17T20:25:07;101149.00;;;16.91;100.00
71361;BME280;59166;48.908;1.870;2022-10-17T20:30:09;101149.28;;;16.94;100.00
71361;BME280;59166;48.908;1.870;2022-10-17T20:35:11;101151.44;;;16.92;100.00
71361;BME280;59166;48.908;1.870;2022-10-17T20:40:12;101166.47;;;16.95;100.00
71361;BME280;59166;48.908;1.870;2022-10-17T20:45:13;101168.06;;;16.96;100.00
71361;BME280;59166;48.908;1.870;2022-10-17T20:50:16;101159.38;;;16.94;100.00
71361;BME280;59166;48.908;1.870;2022-10-17T20:55:16;101159.34;;;16.99;100.00
71361;BME280;59166;48.908;1.870;2022-10-17T21:00:18;101154.94;;;17.03;100.00
71361;BME280;59166;48.908;1.870;2022-10-17T21:05:20;101165.59;;;17.05;100.00
71361;BME280;59166;48.908;1.870;2022-10-17T21:10:21;101166.66;;;17.09;100.00
71361;BME280;59166;48.908;1.870;2022-10-17T21:15:22;101167.50;;;17.04;100.00
71361;BME280;59166;48.908;1.870;2022-10-17T21:20:25;101171.88;;;17.05;100.00
71361;BME280;59166;48.908;1.870;2022-10-17T21:25:25;101172.13;;;17.09;100.00
71361;BME280;59166;48.908;1.870;2022-10-17T21:30:27;101181.16;;;17.04;100.00
71361;BME280;59166;48.908;1.870;2022-10-17T21:35:29;101176.00;;;16.98;100.00
71361;BME280;59166;48.908;1.870;2022-10-17T21:40:30;101179.81;;;16.96;100.00
71361;BME280;59166;48.908;1.870;2022-10-17T21:45:30;101182.59;;;16.91;100.00
71361;BME280;59166;48.908;1.870;2022-10-17T21:50:36;101193.22;;;16.93;100.00
71361;BME280;59166;48.908;1.870;2022-10-17T21:55:37;101204.44;;;16.91;100.00
71361;BME280;59166;48.908;1.870;2022-10-17T22:00:38;101209.06;;;16.91;100.00
71361;BME280;59166;48.908;1.870;2022-10-17T22:05:40;101215.03;;;16.93;100.00
71361;BME280;59166;48.908;1.870;2022-10-17T22:10:41;101213.97;;;16.89;100.00
71361;BME280;59166;48.908;1.870;2022-10-17T22:15:42;101219.16;;;16.90;100.00
71361;BME280;59166;48.908;1.870;2022-10-17T22:20:44;101227.34;;;16.90;100.00
71361;BME280;59166;48.908;1.870;2022-10-17T22:25:52;101215.34;;;16.91;100.00
71361;BME280;59166;48.908;1.870;2022-10-17T22:30:53;101212.31;;;16.93;100.00
71361;BME280;59166;48.908;1.870;2022-10-17T22:35:55;101219.41;;;16.94;100.00
71361;BME280;59166;48.908;1.870;2022-10-17T22:40:56;101219.41;;;16.94;100.00
71361;BME280;59166;48.908;1.870;2022-10-17T22:45:59;101220.50;;;16.93;100.00
71361;BME280;59166;48.908;1.870;2022-10-17T22:51:01;101222.13;;;16.99;100.00
71361;BME280;59166;48.908;1.870;2022-10-17T22:56:04;101222.13;;;16.99;100.00
71361;BME280;59166;48.908;1.870;2022-10-17T23:01:07;101210.13;;;16.95;100.00
71361;BME280;59166;48.908;1.870;2022-10-17T23:06:10;101199.78;;;16.92;100.00
71361;BME280;59166;48.908;1.870;2022-10-17T23:11:11;101197.59;;;16.89;100.00
71361;BME280;59166;48.908;1.870;2022-10-17T23:16:12;101199.78;;;16.87;100.00
71361;BME280;59166;48.908;1.870;2022-10-17T23:21:14;101201.44;;;16.83;100.00
71361;BME280;59166;48.908;1.870;2022-10-17T23:26:15;101208.81;;;16.82;100.00
71361;BME280;59166;48.908;1.870;2022-10-17T23:31:17;101198.47;;;16.79;100.00
71361;BME280;59166;48.908;1.870;2022-10-17T23:36:20;101214.00;;;16.79;100.00
71361;BME280;59166;48.908;1.870;2022-10-17T23:41:21;101205.03;;;16.78;100.00
71361;BME280;59166;48.908;1.870;2022-10-17T23:46:22;101194.13;;;16.78;100.00
71361;BME280;59166;48.908;1.870;2022-10-17T23:51:24;101199.31;;;16.75;100.00
71361;BME280;59166;48.908;1.870;2022-10-17T23:56:25;101206.38;;;16.76;100.00
